Annamoriah, WV

7:47 AM EST on December 10, 2016 (GMT -0500)
Deerfield | | Change Station

Elev 950 ft 38.82 °N, 81.38 °W | Updated 2 minutes ago

Overcast
Overcast
22.2 °F
Feels Like 22 °F
N
2.0
Wind Variable Wind from WSW
Gusts 6.0 mph

Today
High -- | Low -- °F
--% Chance of Precip.
Yesterday
High -- | Low -- °F
Precip. -- in
Pressure 30.60 in
Visibility 9.0 miles
Clouds Overcast 4300 ft
Windchill 22 °F
Dew Point 16 °F
Humidity 77%
Rainfall 0.00 in
Snow Depth Not available.
7:33 AM 5:02 PM
Waxing Gibbous, 83% visible
METAR KPKB 101153Z 23005KT 9SM OVC043 M05/M09 A3056 RMK AO2 SLP361 60000 T10501094 11044 21050 53008
Pressure 30.60 in
Visibility 9.0 miles
Clouds Overcast 4300 ft
Windchill 22 °F
Dew Point 16 °F
Humidity 77%
Rainfall 0.00 in
Snow Depth Not available.
7:33 AM 5:02 PM
Waxing Gibbous, 83% visible
METAR KPKB 101153Z 23005KT 9SM OVC043 M05/M09 A3056 RMK AO2 SLP361 60000 T10501094 11044 21050 53008

10-Day Weather Forecast

Almanac

Astronomy

Dec. 10, 2016 Rise Set
Actual Time
Civil Twilight
Nautical Twilight
Astronomical Twilight
Moon
Length of Visible Light
Length of Day
Tomorrow will be .
, % of the Moon is Illuminated

Today's Extremes

State Highs State Lows

Community

WunderPhotos

Upload Photos

1,956,540 photos uploaded!

WunderBlog® & News

Nearby

Air Quality

  Air Quality AQ Index Pollutant
Not available.

Snow Depth

Station Depth Elevation

Earthquake Activity

City Distance Mag. Time & Date
Minimum magnitude displayed is 2.5.

Coastal Water Temperatures

Place Temperature

Stations

Nearby Weather Stations

Station Location Temp. Windchill Dew Point Humidity Wind Precip. Elev Updated Type
                   

Watches & Warnings

There are currently no watches in effect.